Time;durP1;ratioP1;P1;durP2;ratioP2;P2;SDS_P1;SDS_P2;PMS_P1;PMS_P2;Temp;Humidity;BMP_temperature;BMP_pressure;BME280_temperature;BME280_humidity;BME280_pressure;Samples;Min_cycle;Max_cycle;Signal;HPM_P1;HPM_P2
2020/12/03 00:03:05;;;;;;;123.07;56.37;;;;;;;-2.24;73.40;100360.55;2240396;77;31010;-72
2020/12/03 00:06:26;;;;;;;141.20;60.60;;;;;;;-2.22;73.46;100356.20;2232320;78;34066;-70
2020/12/03 00:09:28;;;;;;;145.28;63.10;;;;;;;-2.28;73.34;100350.49;2229966;77;29476;-72
2020/12/03 00:12:31;;;;;;;120.92;53.73;;;;;;;-2.34;73.40;100339.97;2269928;77;27603;-71
2020/12/03 00:15:33;;;;;;;128.23;56.70;;;;;;;-2.35;73.46;100339.11;2267172;77;28573;-73
2020/12/03 00:18:37;;;;;;;134.87;60.12;;;;;;;-2.35;73.51;100340.84;2302274;77;31060;-75
2020/12/03 00:21:47;;;;;;;104.38;45.63;;;;;;;-2.34;73.57;100333.41;2252467;77;36861;-74
2020/12/03 00:24:50;;;;;;;108.80;47.93;;;;;;;-2.30;73.67;100328.17;2298061;77;28718;-73
2020/12/03 00:27:55;;;;;;;121.15;56.02;;;;;;;-2.26;73.40;100329.08;2264881;77;27553;-68
2020/12/03 00:30:58;;;;;;;118.15;52.30;;;;;;;-2.32;73.31;100326.00;2266468;77;28674;-74
2020/12/03 00:34:07;;;;;;;102.25;41.75;;;;;;;-2.33;73.27;100323.35;2300066;77;30381;-74
2020/12/03 00:37:09;;;;;;;107.32;46.77;;;;;;;-2.37;73.16;100328.14;2302975;77;33293;-74
2020/12/03 00:40:11;;;;;;;101.30;41.28;;;;;;;-2.45;73.12;100321.55;2225978;75;29602;-72
2020/12/03 00:43:15;;;;;;;108.75;47.80;;;;;;;-2.51;73.16;100321.10;2184579;78;27604;-66
2020/12/03 00:46:17;;;;;;;113.70;50.25;;;;;;;-2.62;73.31;100315.80;2185444;77;28807;-66
2020/12/03 00:49:19;;;;;;;107.97;50.50;;;;;;;-2.66;73.41;100311.44;2217765;77;31005;-66
2020/12/03 00:52:22;;;;;;;115.62;50.67;;;;;;;-2.66;73.48;100321.03;2225276;77;32488;-74
2020/12/03 00:55:24;;;;;;;113.88;51.42;;;;;;;-2.70;73.37;100312.28;2224595;77;28623;-71
2020/12/03 00:58:26;;;;;;;112.90;49.38;;;;;;;-2.69;73.47;100314.03;2302897;77;28128;-66
2020/12/03 01:01:28;;;;;;;124.15;52.05;;;;;;;-2.62;73.56;100318.87;2236459;77;28569;-71
2020/12/03 01:04:30;;;;;;;109.65;48.95;;;;;;;-2.62;73.54;100310.56;2261353;77;30673;-69
2020/12/03 01:07:33;;;;;;;103.50;46.58;;;;;;;-2.62;73.54;100310.56;2234395;77;33054;-65
2020/12/03 01:10:36;;;;;;;107.90;47.98;;;;;;;-2.57;73.64;100301.84;2224155;77;28409;-70
2020/12/03 01:13:38;;;;;;;123.10;54.48;;;;;;;-2.59;73.50;100304.47;2293738;77;27620;-73
2020/12/03 01:16:40;;;;;;;114.12;51.83;;;;;;;-2.58;73.51;100300.98;2263248;77;29271;-70
2020/12/03 01:19:42;;;;;;;101.45;48.40;;;;;;;-2.52;73.71;100305.37;2284571;77;31075;-70
2020/12/03 01:22:45;;;;;;;118.72;53.15;;;;;;;-2.48;73.56;100298.82;2223371;77;33091;-68
2020/12/03 01:25:47;;;;;;;128.12;54.42;;;;;;;-2.48;73.50;100295.34;2235291;77;28704;-74
2020/12/03 01:28:49;;;;;;;124.18;54.88;;;;;;;-2.47;73.54;100290.50;2205597;77;27627;-73
2020/12/03 01:31:52;;;;;;;120.25;55.98;;;;;;;-2.41;73.70;100292.30;2203271;78;29518;-69
2020/12/03 01:34:54;;;;;;;115.17;51.73;;;;;;;-2.36;73.57;100285.30;2242805;77;31115;-66
2020/12/03 01:37:56;;;;;;;131.87;57.48;;;;;;;-2.31;73.45;100274.39;2271693;77;34138;-74
2020/12/03 01:40:58;;;;;;;122.67;50.80;;;;;;;-2.26;73.48;100277.02;2217779;78;28863;-69
2020/12/03 01:44:01;;;;;;;106.43;51.45;;;;;;;-2.24;73.38;100264.78;2225049;77;27572;-66
2020/12/03 01:47:04;;;;;;;120.70;53.95;;;;;;;-2.24;73.19;100255.59;2250240;77;29732;-66
2020/12/03 01:50:08;;;;;;;128.12;56.58;;;;;;;-2.27;73.18;100253.86;2264080;77;32153;-74
2020/12/03 01:53:12;;;;;;;122.37;57.08;;;;;;;-2.27;73.24;100264.77;2237297;77;34047;-74
2020/12/03 01:56:41;;;;;;;117.37;52.75;;;;;;;-2.27;73.21;100252.54;2293912;77;29826;-74
2020/12/03 02:00:06;;;;;;;130.55;58.33;;;;;;;-2.27;73.14;100246.40;2271842;77;27657;-66
2020/12/03 02:03:08;;;;;;;127.90;51.70;;;;;;;-2.27;73.33;100237.22;2275598;77;30402;-63
2020/12/03 02:06:11;;;;;;;131.25;56.73;;;;;;;-2.26;73.04;100232.41;2236643;77;30928;-64
2020/12/03 02:09:13;;;;;;;127.78;53.30;;;;;;;-2.32;73.08;100224.98;2227271;77;34093;-71
2020/12/03 02:12:15;;;;;;;123.35;52.13;;;;;;;-2.32;73.14;100222.37;2228826;78;29319;-68
2020/12/03 02:15:19;;;;;;;136.43;60.92;;;;;;;-2.31;73.10;100212.73;2231569;77;27738;-66
2020/12/03 02:18:21;;;;;;;127.40;58.78;;;;;;;-2.32;73.21;100204.00;2275927;77;29037;-70
2020/12/03 02:21:24;;;;;;;132.35;60.45;;;;;;;-2.24;73.22;100197.45;2222681;77;31040;-75
2020/12/03 02:24:29;;;;;;;127.85;59.35;;;;;;;-2.22;73.22;100196.98;2211430;78;33345;-72
2020/12/03 02:27:31;;;;;;;134.93;58.78;;;;;;;-2.19;73.09;100190.44;2209421;77;28679;-65
2020/12/03 02:30:34;;;;;;;132.78;59.67;;;;;;;-2.14;73.15;100190.43;2207321;78;27744;-68
2020/12/03 02:33:36;;;;;;;148.30;65.03;;;;;;;-2.17;72.80;100184.75;2216139;79;28797;-74
2020/12/03 02:36:38;;;;;;;146.43;64.45;;;;;;;-2.18;73.09;100183.00;2236443;78;31137;-75
2020/12/03 02:39:40;;;;;;;147.93;60.40;;;;;;;-2.20;72.91;100176.02;2266220;77;33189;-70
2020/12/03 02:42:43;;;;;;;134.78;59.23;;;;;;;-2.16;73.04;100175.15;2231183;77;28861;-73
2020/12/03 02:45:45;;;;;;;136.40;61.18;;;;;;;-2.17;72.90;100174.71;2231928;77;27687;-72
2020/12/03 02:48:48;;;;;;;145.47;63.20;;;;;;;-2.20;72.87;100178.64;2213919;77;28996;-72
2020/12/03 02:51:50;;;;;;;133.00;59.48;;;;;;;-2.21;73.03;100176.44;2226462;77;31136;-69
2020/12/03 02:54:54;;;;;;;133.78;53.87;;;;;;;-2.18;72.93;100176.44;2172434;79;33098;-74
2020/12/03 02:57:56;;;;;;;135.70;60.05;;;;;;;-2.21;72.85;100183.45;2166130;80;28861;-67
2020/12/03 03:00:58;;;;;;;131.30;55.38;;;;;;;-2.24;72.87;100186.95;2187130;80;27906;-73
2020/12/03 03:04:03;;;;;;;132.97;57.60;;;;;;;-2.29;72.78;100177.73;2161036;80;29454;-65
2020/12/03 03:07:05;;;;;;;145.02;57.45;;;;;;;-2.30;72.87;100179.92;2139756;80;32165;-66
2020/12/03 03:10:07;;;;;;;141.80;62.93;;;;;;;-2.28;73.13;100177.32;2179143;80;33176;-65
2020/12/03 03:13:09;;;;;;;142.13;62.25;;;;;;;-2.29;73.02;100169.01;2165490;80;28843;-76
2020/12/03 03:16:11;;;;;;;156.20;64.42;;;;;;;-2.27;72.98;100172.94;2187042;80;27757;-71
2020/12/03 03:19:15;;;;;;;128.53;52.80;;;;;;;-2.25;72.98;100172.50;2172539;80;28941;-65
2020/12/03 03:22:18;;;;;;;131.80;60.28;;;;;;;-2.30;72.82;100175.98;2204250;79;31129;-70
2020/12/03 03:25:19;;;;;;;123.25;50.95;;;;;;;-2.35;72.90;100179.48;2171207;80;33143;-63
2020/12/03 03:28:21;;;;;;;129.20;57.00;;;;;;;-2.40;73.06;100180.80;2199249;80;28861;-66
2020/12/03 03:31:24;;;;;;;151.68;64.15;;;;;;;-2.45;73.07;100159.81;2123261;80;27777;-65
2020/12/03 03:34:27;;;;;;;152.25;65.97;;;;;;;-2.45;73.25;100157.19;2169265;80;28900;-65
2020/12/03 03:37:29;;;;;;;152.30;64.53;;;;;;;-2.38;73.26;100159.80;2152518;80;31628;-65
2020/12/03 03:40:31;;;;;;;138.10;57.50;;;;;;;-2.37;73.36;100155.89;2200560;80;34029;-67
2020/12/03 03:43:34;;;;;;;150.87;62.33;;;;;;;-2.34;73.22;100148.45;2150648;81;28676;-66
2020/12/03 03:46:36;;;;;;;145.75;61.10;;;;;;;-2.34;73.19;100134.02;2133966;81;27713;-69
2020/12/03 03:49:38;;;;;;;141.05;61.55;;;;;;;-2.34;73.24;100135.33;2122110;81;28575;-67
2020/12/03 03:52:40;;;;;;;133.22;55.03;;;;;;;-2.32;73.32;100127.92;2164594;80;31126;-66
2020/12/03 03:55:43;;;;;;;159.40;62.13;;;;;;;-2.33;73.22;100131.41;2146317;80;33100;-68
2020/12/03 03:58:45;;;;;;;156.40;64.10;;;;;;;-2.38;73.23;100133.15;2178510;80;29586;-68
2020/12/03 04:01:47;;;;;;;166.03;70.47;;;;;;;-2.40;73.36;100136.66;2178179;80;28253;-71
2020/12/03 04:04:49;;;;;;;136.72;54.20;;;;;;;-2.33;73.56;100123.96;2185499;80;28801;-67
2020/12/03 04:07:51;;;;;;;160.28;66.60;;;;;;;-2.29;73.46;100114.77;2157874;80;30935;-68
2020/12/03 04:10:54;;;;;;;154.07;61.33;;;;;;;-2.27;73.42;100106.92;2167934;80;33250;-66
2020/12/03 04:13:56;;;;;;;157.40;61.50;;;;;;;-2.22;73.41;100105.59;2208728;79;29676;-74
2020/12/03 04:16:58;;;;;;;165.05;64.27;;;;;;;-2.20;73.35;100102.09;2195589;79;27599;-66
2020/12/03 04:20:00;;;;;;;153.68;65.03;;;;;;;-2.18;73.28;100086.36;2170173;79;28628;-69
2020/12/03 04:23:02;;;;;;;169.60;69.75;;;;;;;-2.18;73.19;100079.34;2180326;79;31116;-68
2020/12/03 04:26:05;;;;;;;175.82;71.00;;;;;;;-2.14;73.29;100072.33;2193047;80;33238;-69
2020/12/03 04:29:07;;;;;;;170.32;70.57;;;;;;;-2.06;73.33;100067.97;2203520;80;29011;-67
2020/12/03 04:32:09;;;;;;;160.85;68.28;;;;;;;-1.98;73.21;100067.95;2183536;80;28305;-70
2020/12/03 04:35:17;;;;;;;155.63;65.75;;;;;;;-1.92;73.14;100069.68;2192292;80;29802;-74
2020/12/03 04:38:18;;;;;;;159.50;66.07;;;;;;;-1.91;72.83;100076.27;2213727;79;30928;-76
2020/12/03 04:41:20;;;;;;;151.97;64.40;;;;;;;-1.92;72.75;100068.37;2136158;79;32891;-79
2020/12/03 04:44:27;;;;;;;144.17;60.55;;;;;;;-1.93;72.65;100085.89;2157663;80;28949;-78
2020/12/03 04:47:43;;;;;;;156.40;64.67;;;;;;;-2.01;72.56;100080.65;2205317;79;27897;-75
2020/12/03 04:51:21;;;;;;;148.02;60.75;;;;;;;-2.03;72.85;100078.47;2208246;80;28803;-72
2020/12/03 04:54:46;;;;;;;150.45;62.95;;;;;;;-2.02;72.73;100078.01;2204226;80;31919;-78
2020/12/03 04:58:18;;;;;;;132.37;56.70;;;;;;;-1.98;72.91;100062.70;2243827;78;35093;-77
2020/12/03 05:01:43;;;;;;;159.15;65.52;;;;;;;-1.94;72.90;100051.74;2182526;80;29407;-76
2020/12/03 05:05:01;;;;;;;129.07;47.17;;;;;;;-1.97;72.78;100056.99;2142842;83;27859;-70
2020/12/03 05:08:15;;;;;;;152.85;63.23;;;;;;;-1.97;72.71;100055.68;2181352;80;28812;-75
2020/12/03 05:11:43;;;;;;;138.83;54.87;;;;;;;-1.93;72.81;100045.20;2342263;76;36763;-75
2020/12/03 05:14:52;;;;;;;146.68;64.90;;;;;;;-2.00;72.66;100033.84;2303808;77;28145;-78
2020/12/03 05:18:20;;;;;;;119.30;47.23;;;;;;;-2.02;72.70;100036.91;2271451;77;28798;-70
2020/12/03 05:21:30;;;;;;;153.18;58.78;;;;;;;-2.00;72.87;100038.20;2213460;80;31140;-70
2020/12/03 05:24:32;;;;;;;167.13;65.15;;;;;;;-1.99;72.72;100034.70;2145822;81;33060;-77
2020/12/03 05:27:34;;;;;;;156.30;61.75;;;;;;;-1.99;72.73;100039.95;2151363;81;28606;-77
2020/12/03 05:30:42;;;;;;;164.37;70.15;;;;;;;-2.05;72.70;100029.03;2141618;80;27690;-77
2020/12/03 05:33:45;;;;;;;133.18;57.60;;;;;;;-2.03;72.81;100034.27;2186262;80;29860;-74
2020/12/03 05:37:02;;;;;;;161.30;64.92;;;;;;;-2.03;72.75;100032.95;2189115;80;31918;-73
2020/12/03 05:40:06;;;;;;;174.77;69.30;;;;;;;-1.99;72.94;100034.28;2197134;79;33099;-75
2020/12/03 05:43:10;;;;;;;164.45;68.02;;;;;;;-1.95;72.92;100028.57;2197976;79;28956;-70
2020/12/03 05:46:16;;;;;;;160.37;65.03;;;;;;;-1.93;72.75;100031.18;2198124;79;27677;-75
2020/12/03 05:49:21;;;;;;;167.57;71.10;;;;;;;-1.88;72.87;100022.86;2172681;79;29448;-77
2020/12/03 05:52:26;;;;;;;171.30;69.37;;;;;;;-1.80;72.88;100014.95;2197797;79;31146;-72
2020/12/03 05:55:30;;;;;;;172.22;71.22;;;;;;;-1.76;72.73;100006.20;2148062;79;32974;-76
2020/12/03 05:58:32;;;;;;;191.55;78.02;;;;;;;-1.78;72.57;100007.95;2197532;79;28862;-75
2020/12/03 06:01:35;;;;;;;173.85;72.92;;;;;;;-1.79;72.49;100006.20;2198019;79;27799;-76
2020/12/03 06:05:13;;;;;;;170.38;66.33;;;;;;;-1.78;72.75;100000.93;2219787;79;28571;-75
2020/12/03 06:09:03;;;;;;;196.75;80.32;;;;;;;-1.73;72.70;99997.86;2171023;81;30727;-71
2020/12/03 06:12:35;;;;;;;170.47;69.85;;;;;;;-1.70;72.57;100002.20;2091889;83;32959;-76
2020/12/03 06:15:53;;;;;;;168.32;68.70;;;;;;;-1.69;72.59;100011.84;2197025;81;28922;-71
2020/12/03 06:19:18;;;;;;;154.03;64.55;;;;;;;-1.67;72.46;99999.58;2116568;83;27728;-74
2020/12/03 06:22:58;;;;;;;176.90;72.75;;;;;;;-1.66;72.40;100000.47;2115243;83;28869;-74
2020/12/03 06:26:31;;;;;;;148.13;62.57;;;;;;;-1.60;72.38;100003.94;2252391;77;36688;-77
2020/12/03 06:30:06;;;;;;;184.87;76.67;;;;;;;-1.68;72.24;99995.20;2185286;80;27784;-76
2020/12/03 06:33:35;;;;;;;155.82;64.40;;;;;;;-1.72;72.44;99993.04;2186555;80;28584;-73
2020/12/03 06:36:46;;;;;;;178.27;73.12;;;;;;;-1.71;72.37;99990.84;2185315;80;31873;-76
2020/12/03 06:40:03;;;;;;;164.65;64.22;;;;;;;-1.72;72.42;99990.41;2186856;80;33209;-76
2020/12/03 06:43:19;;;;;;;176.27;73.70;;;;;;;-1.71;72.32;99986.91;2186728;80;28299;-76
2020/12/03 06:46:59;;;;;;;190.53;76.30;;;;;;;-1.70;72.38;99986.45;2211523;80;27817;-71
2020/12/03 06:50:24;;;;;;;170.40;69.17;;;;;;;-1.66;72.52;99986.88;2132824;82;28504;-76
2020/12/03 06:53:59;;;;;;;152.62;61.10;;;;;;;-1.64;72.31;99981.61;2157509;82;31122;-75
2020/12/03 06:57:39;;;;;;;177.27;73.05;;;;;;;-1.62;72.26;99983.37;2112274;83;32923;-75
2020/12/03 07:01:19;;;;;;;149.10;60.40;;;;;;;-1.63;72.34;99976.79;2076480;84;28629;-76
2020/12/03 07:05:16;;;;;;;178.17;72.10;;;;;;;-1.54;72.37;99974.99;2238051;77;36669;-77
2020/12/03 07:08:35;;;;;;;167.10;66.25;;;;;;;-1.50;72.47;99978.92;2178158;81;28357;-78
2020/12/03 07:12:13;;;;;;;179.95;72.20;;;;;;;-1.41;72.35;99978.43;2178900;81;28809;-77
2020/12/03 07:15:56;;;;;;;167.03;62.55;;;;;;;-1.33;72.41;99980.16;2178753;81;32657;-79
2020/12/03 07:19:12;;;;;;;180.25;72.72;;;;;;;-1.23;72.19;99976.57;2145783;81;32741;-74
2020/12/03 07:22:37;;;;;;;142.18;57.38;;;;;;;-1.14;72.28;99973.02;2148267;81;28073;-78
2020/12/03 07:25:42;;;;;;;167.43;69.53;;;;;;;-1.12;71.87;99970.79;2124995;81;27604;-78
2020/12/03 07:28:45;;;;;;;167.45;69.17;;;;;;;-1.07;72.14;99969.02;2149250;81;28791;-77
2020/12/03 07:31:50;;;;;;;180.87;72.87;;;;;;;-1.02;72.14;99972.91;2178728;80;30917;-76
2020/12/03 07:35:07;;;;;;;166.50;72.00;;;;;;;-0.98;72.01;99977.70;2146241;81;33128;-77
2020/12/03 07:38:43;;;;;;;170.87;68.45;;;;;;;-0.93;72.25;99984.69;2100468;82;28410;-73
2020/12/03 07:41:58;;;;;;;165.75;68.07;;;;;;;-0.86;72.06;99978.94;2158296;82;27650;-76
2020/12/03 07:45:01;;;;;;;172.53;69.37;;;;;;;-0.84;71.68;99982.44;2135238;82;28822;-73
2020/12/03 07:48:35;;;;;;;172.93;70.80;;;;;;;-0.83;71.64;99980.23;2297463;77;37238;-76
2020/12/03 07:51:37;;;;;;;190.80;73.92;;;;;;;-0.81;71.99;99977.58;2230164;78;27679;-70
2020/12/03 07:54:39;;;;;;;175.10;70.70;;;;;;;-0.82;71.85;99977.15;2230414;78;28977;-76
2020/12/03 07:57:47;;;;;;;162.43;68.55;;;;;;;-0.79;71.88;99981.08;2190867;80;31146;-78
2020/12/03 08:00:52;;;;;;;175.07;70.40;;;;;;;-0.79;71.91;99977.13;2190403;80;33409;-76
2020/12/03 08:03:56;;;;;;;172.22;73.33;;;;;;;-0.83;71.87;99987.23;2192186;80;28613;-77
2020/12/03 08:07:06;;;;;;;176.10;70.97;;;;;;;-0.83;72.16;99984.19;2190774;80;27742;-75
2020/12/03 08:10:20;;;;;;;189.97;77.92;;;;;;;-0.77;72.22;99981.94;2191755;80;28976;-76
2020/12/03 08:13:41;;;;;;;182.70;74.80;;;;;;;-0.67;72.41;99976.16;2252350;77;36660;-77
2020/12/03 08:16:45;;;;;;;167.53;73.55;;;;;;;-0.67;72.34;99979.65;2160588;80;27622;-76
2020/12/03 08:20:11;;;;;;;180.20;73.17;;;;;;;-0.62;72.33;99983.55;2138625;80;28919;-78
2020/12/03 08:23:14;;;;;;;177.68;72.30;;;;;;;-0.62;72.21;99989.70;2163896;81;31206;-77
2020/12/03 08:26:28;;;;;;;174.10;72.90;;;;;;;-0.65;72.05;99994.98;2101542;81;32919;-76
2020/12/03 08:29:45;;;;;;;180.95;72.17;;;;;;;-0.64;72.27;99995.41;2133855;80;35456;-77
2020/12/03 08:33:15;;;;;;;187.00;76.00;;;;;;;-0.58;72.26;100002.83;2217014;80;27716;-77
2020/12/03 08:36:18;;;;;;;168.62;70.57;;;;;;;-0.59;72.23;99994.50;2186152;80;28642;-76
2020/12/03 08:39:20;;;;;;;171.95;71.40;;;;;;;-0.62;72.02;99998.02;2186543;80;30887;-77
2020/12/03 08:42:23;;;;;;;171.02;74.85;;;;;;;-0.67;72.19;99999.38;2161892;80;33360;-75
2020/12/03 08:45:25;;;;;;;173.60;71.50;;;;;;;-0.70;72.37;99995.45;2186505;80;29352;-71
2020/12/03 08:48:30;;;;;;;188.30;79.12;;;;;;;-0.71;72.52;99990.22;2160815;80;27665;-73
2020/12/03 08:51:35;;;;;;;165.28;70.65;;;;;;;-0.70;72.75;99984.93;2161884;80;29767;-75
2020/12/03 08:54:36;;;;;;;199.93;89.55;;;;;;;-0.67;72.77;99986.68;2186639;80;31221;-78
2020/12/03 08:57:42;;;;;;;179.95;75.42;;;;;;;-0.69;72.72;99980.09;2161711;80;33777;-77
2020/12/03 09:00:45;;;;;;;194.10;85.77;;;;;;;-0.72;72.74;99966.97;2205559;80;28690;-74
2020/12/03 09:03:49;;;;;;;166.85;73.30;;;;;;;-0.70;72.92;99970.92;2186643;80;28285;-75
2020/12/03 09:06:52;;;;;;;167.20;71.45;;;;;;;-0.72;73.05;99970.91;2156071;80;29422;-77
2020/12/03 09:09:57;;;;;;;178.62;72.17;;;;;;;-0.68;72.89;99968.70;2161298;80;30994;-77
2020/12/03 09:13:00;;;;;;;167.95;71.22;;;;;;;-0.71;72.81;99971.80;2186830;80;33756;-77
2020/12/03 09:16:02;;;;;;;171.75;70.00;;;;;;;-0.74;73.08;99962.16;2187032;80;28847;-72
2020/12/03 09:19:05;;;;;;;193.02;85.35;;;;;;;-0.75;73.18;99959.55;2161959;80;27649;-75
2020/12/03 09:22:08;;;;;;;174.20;71.00;;;;;;;-0.70;73.48;99944.16;2217528;80;28852;-76
2020/12/03 09:25:13;;;;;;;187.07;80.67;;;;;;;-0.66;73.47;99944.56;2160498;80;30927;-71
2020/12/03 09:28:19;;;;;;;180.22;77.85;;;;;;;-0.65;73.48;99942.36;2148147;81;32926;-76
2020/12/03 09:31:21;;;;;;;161.07;69.77;;;;;;;-0.62;73.65;99941.45;2146154;81;28765;-75
2020/12/03 09:34:24;;;;;;;158.40;66.37;;;;;;;-0.62;73.37;99950.66;2177655;81;27704;-75
2020/12/03 09:37:28;;;;;;;180.72;74.87;;;;;;;-0.64;73.49;99937.96;2170902;81;28657;-69
2020/12/03 09:40:33;;;;;;;166.68;70.30;;;;;;;-0.68;73.47;99937.12;2178228;81;31144;-77
2020/12/03 09:43:38;;;;;;;171.40;75.20;;;;;;;-0.66;73.81;99925.30;2148988;81;33107;-70
2020/12/03 09:46:44;;;;;;;163.55;71.47;;;;;;;-0.63;73.90;99916.92;2193078;80;29796;-69
2020/12/03 09:49:47;;;;;;;167.47;77.60;;;;;;;-0.58;73.90;99910.29;2161262;80;32064;-77
2020/12/03 09:52:51;;;;;;;170.70;73.00;;;;;;;-0.55;73.90;99904.11;2162406;80;32483;-72
2020/12/03 09:55:59;;;;;;;166.47;69.92;;;;;;;-0.60;73.76;99899.36;2191258;80;31121;-67
2020/12/03 09:59:02;;;;;;;170.60;71.67;;;;;;;-0.60;73.98;99889.70;2148269;81;32909;-72
2020/12/03 10:02:13;;;;;;;169.57;73.47;;;;;;;-0.66;73.95;99889.33;2092872;81;29304;-70
2020/12/03 10:05:42;;;;;;;160.43;70.75;;;;;;;-0.59;74.19;99886.64;2147392;81;27597;-68
2020/12/03 10:09:05;;;;;;;156.20;67.70;;;;;;;-0.55;74.36;99877.38;2148650;81;28818;-72
2020/12/03 10:12:46;;;;;;;171.80;72.85;;;;;;;-0.49;74.29;99873.80;2148076;81;30951;-69
2020/12/03 10:16:04;;;;;;;172.98;75.28;;;;;;;-0.53;74.14;99859.81;2121972;81;33051;-74
2020/12/03 10:19:11;;;;;;;170.50;73.72;;;;;;;-0.50;74.23;99855.84;2148152;81;28924;-68
2020/12/03 10:22:22;;;;;;;147.45;63.42;;;;;;;-0.50;74.24;99848.37;2124434;81;28189;-73
2020/12/03 10:25:30;;;;;;;173.57;75.22;;;;;;;-0.49;74.24;99848.80;2178146;81;28808;-72
2020/12/03 10:28:49;;;;;;;146.93;64.40;;;;;;;-0.48;74.37;99838.70;2148365;81;31183;-69
2020/12/03 10:31:52;;;;;;;173.68;77.95;;;;;;;-0.54;74.26;99836.14;2148169;81;32875;-67
2020/12/03 10:34:55;;;;;;;132.90;59.15;;;;;;;-0.54;74.39;99822.98;2123955;81;28930;-71
2020/12/03 10:38:23;;;;;;;143.85;61.30;;;;;;;-0.53;74.20;99808.94;2148842;78;28306;-67
2020/12/03 10:41:35;;;;;;;159.40;67.87;;;;;;;-0.58;74.34;99798.48;2147862;81;28597;-73
2020/12/03 10:44:40;;;;;;;144.85;65.65;;;;;;;-0.53;74.65;99793.16;2123919;81;30921;-67
2020/12/03 10:47:53;;;;;;;141.43;64.32;;;;;;;-0.45;74.71;99788.68;2125330;81;33109;-72
2020/12/03 10:51:00;;;;;;;115.20;48.83;;;;;;;-0.39;74.70;99770.63;2178312;80;29870;-70
2020/12/03 10:54:02;;;;;;;142.37;62.35;;;;;;;-0.39;74.40;99770.63;2123260;81;27777;-67
2020/12/03 10:57:20;;;;;;;133.30;59.15;;;;;;;-0.39;74.57;99769.30;2124314;81;28583;-67
2020/12/03 11:00:22;;;;;;;143.30;64.67;;;;;;;-0.37;74.61;99771.02;2146619;81;31076;-68
2020/12/03 11:03:29;;;;;;;142.53;61.83;;;;;;;-0.34;74.59;99753.02;2124262;81;32884;-67
2020/12/03 11:06:32;;;;;;;145.30;64.70;;;;;;;-0.32;74.78;99745.94;2093781;81;28857;-79
2020/12/03 11:09:35;;;;;;;110.92;47.58;;;;;;;-0.27;74.61;99750.70;2147882;81;27888;-72
2020/12/03 11:12:37;;;;;;;132.43;60.28;;;;;;;-0.31;74.47;99753.84;2123815;81;28588;-70
2020/12/03 11:15:39;;;;;;;139.88;58.58;;;;;;;-0.34;74.47;99755.19;2180775;80;31866;-74
2020/12/03 11:18:48;;;;;;;134.18;60.12;;;;;;;-0.37;74.45;99745.16;2175085;81;32775;-78
2020/12/03 11:22:14;;;;;;;131.00;57.93;;;;;;;-0.37;74.60;99730.69;2165860;80;29882;-76
2020/12/03 11:25:28;;;;;;;117.17;55.50;;;;;;;-0.31;74.71;99735.41;2259693;77;37227;-70
2020/12/03 11:28:38;;;;;;;119.90;56.28;;;;;;;-0.37;74.64;99734.17;2169988;79;28115;-72
2020/12/03 11:31:42;;;;;;;99.40;42.27;;;;;;;-0.35;74.82;99724.95;2197992;79;28869;-69
2020/12/03 11:34:44;;;;;;;118.87;53.78;;;;;;;-0.33;74.87;99723.18;2228811;78;31133;-67
2020/12/03 11:37:53;;;;;;;123.82;58.73;;;;;;;-0.33;74.83;99716.14;2170741;79;33251;-77
2020/12/03 11:40:57;;;;;;;111.15;53.25;;;;;;;-0.32;74.81;99715.67;2195728;79;29477;-72
2020/12/03 11:44:13;;;;;;;117.53;55.78;;;;;;;-0.26;74.96;99712.11;2196559;79;27542;-67
2020/12/03 11:50:22;;;;;;;111.62;52.50;;;;;;;-0.15;75.00;99714.13;2157725;81;32044;-68
2020/12/03 11:53:30;;;;;;;117.40;54.15;;;;;;;-0.08;74.86;99710.48;2180620;81;27965;-71
2020/12/03 11:56:35;;;;;;;120.80;54.05;;;;;;;-0.03;74.96;99698.59;2157065;81;28623;-75
2020/12/03 11:59:38;;;;;;;;;;;;;;;0.06;74.92;99688.36;2161333;81;27681;-73
2020/12/03 12:02:40;;;;;;;120.72;58.85;;;;;;;0.14;74.80;99687.77;2147381;79;28914;-73
2020/12/03 12:08:53;;;;;;;119.75;54.10;;;;;;;0.26;75.07;99680.11;2169548;79;33128;-71
2020/12/03 12:11:50;;;;;;;117.90;53.37;;;;;;;0.34;74.76;99667.66;2171836;79;28870;-76
2020/12/03 12:14:52;;;;;;;124.15;56.45;;;;;;;0.40;74.64;99670.66;2145752;79;27704;-74
2020/12/03 12:17:55;;;;;;;113.50;55.23;;;;;;;0.53;74.83;99660.73;2170584;79;28878;-78
2020/12/03 12:20:57;;;;;;;112.22;53.52;;;;;;;0.66;74.82;99655.67;2142204;81;32084;-78
2020/12/03 12:23:59;;;;;;;120.30;54.73;;;;;;;0.77;74.41;99646.67;2133129;81;33178;-76
2020/12/03 12:27:02;;;;;;;127.97;58.13;;;;;;;0.82;74.45;99639.55;2128975;81;28825;-73
2020/12/03 12:30:04;;;;;;;132.70;64.62;;;;;;;0.94;74.61;99638.40;2132514;81;27737;-70
2020/12/03 12:33:06;;;;;;;129.05;63.25;;;;;;;1.04;74.46;99625.45;2189329;81;29779;-75
2020/12/03 12:36:09;;;;;;;153.80;78.75;;;;;;;1.15;74.44;99621.27;2138762;81;30653;-76
2020/12/03 12:39:14;;;;;;;153.53;69.50;;;;;;;1.24;74.24;99623.69;2132779;81;33144;-77
2020/12/03 12:42:16;;;;;;;116.57;57.57;;;;;;;1.28;74.06;99616.56;2158025;79;30181;-77
2020/12/03 12:45:19;;;;;;;139.80;65.25;;;;;;;1.20;73.54;99608.39;2107764;81;27731;-69
2020/12/03 12:48:21;;;;;;;134.18;61.73;;;;;;;1.20;73.64;99603.55;2156270;81;28966;-71
2020/12/03 12:51:23;;;;;;;127.78;60.00;;;;;;;1.17;73.56;99604.50;2108932;81;31927;-77
2020/12/03 12:54:26;;;;;;;106.70;54.00;;;;;;;1.14;73.37;99595.79;2131744;81;32673;-78
2020/12/03 12:57:29;;;;;;;136.90;64.05;;;;;;;1.13;73.51;99593.59;2156750;81;28852;-75
2020/12/03 13:00:32;;;;;;;124.75;57.15;;;;;;;1.04;73.42;99593.80;2131177;81;27657;-67
2020/12/03 13:03:34;;;;;;;122.07;60.52;;;;;;;1.09;73.54;99602.92;2167189;80;28813;-66
2020/12/03 13:06:36;;;;;;;125.50;60.85;;;;;;;1.15;73.81;99600.16;2130594;81;30909;-74
2020/12/03 13:09:39;;;;;;;119.42;59.33;;;;;;;1.23;73.74;99596.89;2132235;81;32885;-78
2020/12/03 13:12:42;;;;;;;130.82;59.88;;;;;;;1.28;73.51;99599.41;2133040;81;29725;-77
2020/12/03 13:15:46;;;;;;;129.60;62.05;;;;;;;1.31;73.67;99601.55;2132591;81;27664;-77
2020/12/03 13:18:49;;;;;;;113.15;52.98;;;;;;;1.43;73.59;99588.97;2156986;81;28619;-77
2020/12/03 13:21:51;;;;;;;118.75;56.75;;;;;;;1.49;73.31;99595.44;2108124;81;32643;-67
2020/12/03 13:24:53;;;;;;;116.05;55.85;;;;;;;1.54;73.57;99590.03;2156265;80;34045;-74
2020/12/03 13:27:55;;;;;;;112.62;56.37;;;;;;;1.57;73.33;99579.41;2107859;81;28660;-76
2020/12/03 13:30:58;;;;;;;108.07;54.35;;;;;;;1.60;73.41;99576.66;2114594;81;27669;-76
2020/12/03 13:34:01;;;;;;;115.40;55.95;;;;;;;1.63;73.47;99576.16;2189541;79;29781;-67
2020/12/03 13:37:03;;;;;;;108.50;53.70;;;;;;;1.67;73.36;99576.48;2171833;79;30926;-70
2020/12/03 13:40:05;;;;;;;117.93;57.98;;;;;;;1.64;73.08;99579.66;2169734;79;32372;-77
2020/12/03 13:43:07;;;;;;;112.42;56.33;;;;;;;1.61;73.14;99574.01;2168073;79;28834;-74
2020/12/03 13:46:09;;;;;;;105.80;53.78;;;;;;;1.61;73.17;99567.84;2134395;81;27732;-67
2020/12/03 13:49:14;;;;;;;125.82;56.88;;;;;;;1.57;73.01;99568.38;2156765;81;29757;-74
2020/12/03 13:52:16;;;;;;;121.23;57.90;;;;;;;1.50;73.10;99562.82;2157013;81;32085;-72
2020/12/03 13:55:19;;;;;;;107.45;51.60;;;;;;;1.47;73.14;99547.94;2131507;81;33262;-69
2020/12/03 13:58:22;;;;;;;114.52;51.92;;;;;;;1.45;73.12;99555.02;2192471;79;28840;-75
2020/12/03 14:01:28;;;;;;;111.60;54.25;;;;;;;1.45;73.06;99542.30;2145172;79;27876;-75
2020/12/03 14:04:32;;;;;;;107.65;52.43;;;;;;;1.35;72.98;99530.63;2144890;79;28584;-67
2020/12/03 14:07:44;;;;;;;101.90;49.27;;;;;;;1.34;73.09;99528.89;2172567;79;31939;-73
2020/12/03 14:10:47;;;;;;;106.95;50.85;;;;;;;1.29;73.18;99521.99;2191101;79;32692;-75
2020/12/03 14:13:51;;;;;;;108.45;50.52;;;;;;;1.24;73.23;99515.52;2194722;79;29433;-67
2020/12/03 14:16:53;;;;;;;101.97;49.77;;;;;;;1.28;73.42;99514.98;2170474;79;27769;-73
2020/12/03 14:19:56;;;;;;;99.37;48.33;;;;;;;1.31;73.47;99518.44;2194075;79;28928;-66